createdAt,value
2019-05-17T00:00:57.514Z,22.55
2019-05-17T00:03:27.628Z,23.38
2019-05-17T00:05:57.584Z,22.15
2019-05-17T00:08:34.428Z,21.80
2019-05-17T00:10:59.186Z,22.17
2019-05-17T00:13:29.175Z,23.40
2019-05-17T00:15:59.141Z,23.67
2019-05-17T00:18:29.185Z,23.15
2019-05-17T00:20:59.218Z,23.92
2019-05-17T00:23:29.217Z,24.23
2019-05-17T00:25:59.356Z,24.00
2019-05-17T00:28:29.352Z,22.75
2019-05-17T00:30:58.962Z,22.77
2019-05-17T00:33:29.880Z,24.12
2019-05-17T00:36:01.471Z,22.98
2019-05-17T00:38:44.793Z,22.25
2019-05-17T00:41:03.190Z,22.58
2019-05-17T00:43:33.155Z,23.22
2019-05-17T00:46:03.103Z,23.77
2019-05-17T00:48:33.076Z,24.10
2019-05-17T00:51:03.378Z,25.40
2019-05-17T00:53:33.388Z,25.85
2019-05-17T00:56:03.339Z,24.80
2019-05-17T00:58:33.343Z,24.57
2019-05-17T01:01:03.361Z,24.85
2019-05-17T01:03:33.329Z,26.25
2019-05-17T01:06:06.310Z,25.10
2019-05-17T01:08:37.343Z,25.77
2019-05-17T01:11:07.588Z,26.85
2019-05-17T01:13:37.689Z,26.07
2019-05-17T01:16:07.663Z,26.95
2019-05-17T01:18:37.331Z,28.07
2019-05-17T01:21:06.863Z,27.93
2019-05-17T01:23:36.790Z,32.53
2019-05-17T01:26:07.523Z,32.85
2019-05-17T01:28:37.843Z,36.73
2019-05-17T01:31:07.810Z,35.63
2019-05-17T01:33:40.153Z,36.40
2019-05-17T01:36:10.132Z,36.70
2019-05-17T01:38:40.155Z,37.93
2019-05-17T01:41:10.207Z,37.90
2019-05-17T01:43:40.246Z,42.00
2019-05-17T01:46:10.223Z,42.90
2019-05-17T01:48:40.212Z,43.87
2019-05-17T01:51:11.238Z,41.65
2019-05-17T01:53:41.384Z,47.20
2019-05-17T01:56:11.348Z,48.83
2019-05-17T01:58:41.288Z,48.30
2019-05-17T02:01:10.908Z,54.53
2019-05-17T02:03:41.025Z,53.90
2019-05-17T02:06:11.015Z,54.23
2019-05-17T02:08:40.953Z,56.45
2019-05-17T02:11:10.905Z,56.53
2019-05-17T02:13:40.908Z,55.65
2019-05-17T02:16:10.927Z,55.67
2019-05-17T02:18:40.931Z,55.83
2019-05-17T02:21:10.896Z,57.15
2019-05-17T02:23:40.924Z,58.98
2019-05-17T02:26:10.967Z,57.67
2019-05-17T02:28:41.411Z,58.25
2019-05-17T02:31:13.290Z,54.50
2019-05-17T02:33:44.233Z,56.85
2019-05-17T02:36:14.552Z,63.73
2019-05-17T02:38:44.594Z,56.18
2019-05-17T02:41:14.587Z,59.38
2019-05-17T02:43:44.645Z,59.73
2019-05-17T02:46:14.678Z,60.30
2019-05-17T02:48:44.772Z,63.23
2019-05-17T02:51:15.711Z,60.75
2019-05-17T02:53:45.754Z,58.80
2019-05-17T02:56:15.768Z,59.90
2019-05-17T02:58:45.765Z,58.02
2019-05-17T03:01:15.783Z,59.75
2019-05-17T03:03:45.740Z,61.48
2019-05-17T03:06:15.995Z,59.48
2019-05-17T03:08:45.980Z,61.05
2019-05-17T03:11:17.016Z,59.98
2019-05-17T03:13:47.334Z,61.88
2019-05-17T03:16:17.404Z,61.30
2019-05-17T03:18:47.437Z,57.83
2019-05-17T03:21:17.589Z,57.35
2019-05-17T03:23:47.701Z,56.42
2019-05-17T03:26:17.716Z,61.15
2019-05-17T03:28:47.769Z,59.05
2019-05-17T03:31:18.300Z,60.23
2019-05-17T03:33:55.012Z,58.33
2019-05-17T03:36:26.009Z,57.40
2019-05-17T03:38:53.535Z,55.67
2019-05-17T03:41:28.699Z,57.08
2019-05-17T03:43:55.423Z,57.35
2019-05-17T03:46:25.521Z,62.03
2019-05-17T03:48:55.627Z,58.13
2019-05-17T03:51:25.639Z,58.38
2019-05-17T03:53:55.662Z,59.93
2019-05-17T03:56:25.635Z,61.73
2019-05-17T03:58:55.689Z,59.45
2019-05-17T04:01:25.782Z,60.43
2019-05-17T04:03:55.776Z,59.53
2019-05-17T04:06:25.823Z,59.75
2019-05-17T04:08:55.444Z,57.85
2019-05-17T04:11:31.387Z,55.08
2019-05-17T04:13:57.052Z,55.58
2019-05-17T04:16:26.719Z,56.85
2019-05-17T04:18:57.540Z,56.60
2019-05-17T04:21:27.583Z,56.08
2019-05-17T04:23:57.216Z,56.75
2019-05-17T04:26:26.752Z,59.05
2019-05-17T04:28:56.769Z,58.80
2019-05-17T04:31:30.481Z,59.75
2019-05-17T04:34:02.667Z,61.48
2019-05-17T04:36:32.336Z,58.95
2019-05-17T04:39:02.695Z,59.53
2019-05-17T04:41:45.067Z,54.95
2019-05-17T04:44:05.181Z,56.60
2019-05-17T04:46:34.873Z,54.85
2019-05-17T04:49:04.783Z,54.33
2019-05-17T04:51:34.434Z,52.95
2019-05-17T04:54:04.495Z,53.05
2019-05-17T04:56:34.458Z,53.45
2019-05-17T04:59:04.148Z,54.23
2019-05-17T05:01:33.752Z,53.35
2019-05-17T05:04:04.002Z,51.63
2019-05-17T05:06:33.985Z,52.78
2019-05-17T05:09:06.169Z,51.68
2019-05-17T05:11:51.603Z,51.92
2019-05-17T05:14:07.729Z,53.35
2019-05-17T05:16:38.042Z,54.53
2019-05-17T05:19:08.107Z,59.10
2019-05-17T05:21:38.140Z,57.20
2019-05-17T05:24:07.760Z,57.73
2019-05-17T05:26:37.645Z,58.30
2019-05-17T05:29:07.663Z,52.95
2019-05-17T05:31:37.723Z,61.80
2019-05-17T05:34:08.562Z,59.23
2019-05-17T05:36:38.556Z,62.08
2019-05-17T05:39:08.588Z,61.33
2019-05-17T05:41:38.718Z,62.25
2019-05-17T05:44:12.779Z,65.47
2019-05-17T05:46:42.834Z,61.90
2019-05-17T05:49:13.984Z,60.63
2019-05-17T05:51:44.010Z,63.45
2019-05-17T05:54:14.054Z,57.05
2019-05-17T05:56:44.077Z,57.98
2019-05-17T05:59:14.074Z,60.60
2019-05-17T06:01:44.364Z,57.90
2019-05-17T06:04:14.335Z,58.70
2019-05-17T06:06:44.295Z,58.83
2019-05-17T06:09:14.354Z,57.50
2019-05-17T06:11:44.316Z,53.70
2019-05-17T06:14:14.289Z,55.90
2019-05-17T06:16:44.183Z,54.00
2019-05-17T06:19:14.093Z,54.75
2019-05-17T06:21:45.015Z,54.75
2019-05-17T06:24:14.695Z,51.53
2019-05-17T06:26:44.280Z,53.17
2019-05-17T06:29:14.179Z,53.13
2019-05-17T06:31:44.132Z,51.63
2019-05-17T06:34:14.977Z,52.15
2019-05-17T06:36:44.924Z,49.18
2019-05-17T06:39:14.960Z,51.83
2019-05-17T06:41:44.997Z,50.25
2019-05-17T06:44:16.563Z,48.78
2019-05-17T06:46:46.303Z,48.02
2019-05-17T06:49:16.235Z,51.18
2019-05-17T06:51:46.213Z,49.90
2019-05-17T06:54:15.792Z,48.48
2019-05-17T06:56:45.666Z,47.95
2019-05-17T06:59:15.344Z,47.23
2019-05-17T07:01:44.861Z,48.13
2019-05-17T07:04:14.428Z,42.53
2019-05-17T07:06:46.023Z,45.35
2019-05-17T07:09:16.143Z,43.78
2019-05-17T07:11:46.179Z,44.77
2019-05-17T07:14:16.169Z,43.85
2019-05-17T07:16:46.130Z,43.78
2019-05-17T07:19:16.143Z,41.20
2019-05-17T07:21:46.124Z,41.40
2019-05-17T07:24:16.399Z,43.25
2019-05-17T07:26:46.423Z,39.55
2019-05-17T07:29:16.547Z,42.40
2019-05-17T07:31:46.684Z,41.15
2019-05-17T07:34:19.837Z,39.03
2019-05-17T07:36:50.383Z,38.45
2019-05-17T07:39:20.555Z,38.08
2019-05-17T07:41:50.862Z,37.83
2019-05-17T07:44:20.880Z,37.13
2019-05-17T07:46:51.949Z,37.98
2019-05-17T07:49:21.965Z,38.35
2019-05-17T07:51:52.024Z,37.42
2019-05-17T07:54:21.985Z,36.98
2019-05-17T07:56:51.943Z,31.55
2019-05-17T07:59:22.199Z,33.45
2019-05-17T08:01:52.143Z,33.78
2019-05-17T08:04:22.157Z,32.17
2019-05-17T08:06:52.135Z,32.28
2019-05-17T08:09:22.064Z,32.05
2019-05-17T08:11:52.017Z,30.85
2019-05-17T08:14:29.873Z,28.38
2019-05-17T08:16:53.707Z,30.30
2019-05-17T08:19:23.644Z,31.35
2019-05-17T08:21:53.792Z,30.75
2019-05-17T08:24:23.797Z,28.55
2019-05-17T08:26:53.858Z,29.37
2019-05-17T08:29:24.080Z,29.40
2019-05-17T08:31:54.175Z,27.90
2019-05-17T08:34:25.050Z,26.23
2019-05-17T08:36:55.079Z,29.98
2019-05-17T08:39:26.684Z,28.35
2019-05-17T08:42:01.213Z,26.68
2019-05-17T08:44:30.518Z,28.23
2019-05-17T08:47:00.468Z,27.65
2019-05-17T08:49:30.686Z,28.23
2019-05-17T08:52:00.676Z,27.37
2019-05-17T08:54:31.595Z,27.32
2019-05-17T08:57:02.717Z,26.25
2019-05-17T08:59:32.778Z,26.40
2019-05-17T09:02:02.796Z,27.00
2019-05-17T09:04:32.833Z,25.12
2019-05-17T09:07:03.261Z,26.77
2019-05-17T09:09:34.630Z,24.92
2019-05-17T09:12:04.685Z,26.42
2019-05-17T09:14:35.618Z,24.87
2019-05-17T09:17:05.880Z,24.72
2019-05-17T09:19:35.518Z,26.07
2019-05-17T09:22:05.510Z,24.87
2019-05-17T09:24:35.163Z,23.37
2019-05-17T09:27:05.174Z,25.20
2019-05-17T09:29:35.142Z,24.43
2019-05-17T09:32:05.070Z,23.95
2019-05-17T09:34:35.849Z,24.98
2019-05-17T09:37:05.812Z,24.15
2019-05-17T09:39:35.882Z,23.20
2019-05-17T09:42:05.931Z,23.62
2019-05-17T09:44:35.659Z,23.57
2019-05-17T09:47:05.631Z,21.95
2019-05-17T09:49:35.596Z,23.07
2019-05-17T09:52:05.643Z,22.77
2019-05-17T09:54:42.339Z,22.02
2019-05-17T09:57:09.755Z,22.35
2019-05-17T09:59:40.477Z,20.82
2019-05-17T10:02:11.862Z,21.30
2019-05-17T10:04:41.878Z,20.52
2019-05-17T10:07:11.814Z,20.65
2019-05-17T10:09:41.784Z,20.12
2019-05-17T10:12:12.822Z,21.15
2019-05-17T10:14:42.548Z,20.60
2019-05-17T10:17:12.232Z,21.73
2019-05-17T10:19:41.867Z,21.63
2019-05-17T10:22:11.645Z,20.13
2019-05-17T10:24:42.448Z,20.17
2019-05-17T10:27:14.584Z,20.47
2019-05-17T10:29:43.861Z,21.37
2019-05-17T10:32:13.630Z,20.97
2019-05-17T10:34:44.082Z,22.07
2019-05-17T10:37:13.768Z,21.27
2019-05-17T10:39:43.503Z,21.30
2019-05-17T10:42:13.327Z,18.30
2019-05-17T10:44:47.391Z,19.77
2019-05-17T10:47:14.342Z,19.20
2019-05-17T10:49:44.100Z,16.97
2019-05-17T10:52:13.753Z,19.47
2019-05-17T10:54:43.655Z,21.10
2019-05-17T10:57:13.370Z,18.63
2019-05-17T10:59:43.036Z,19.30
2019-05-17T11:02:12.681Z,22.37
2019-05-17T11:04:42.496Z,21.67
2019-05-17T11:07:12.170Z,21.10
2019-05-17T11:09:41.904Z,21.07
2019-05-17T11:12:11.730Z,22.00
2019-05-17T11:14:50.691Z,20.50
2019-05-17T11:17:12.837Z,19.50
2019-05-17T11:19:42.480Z,21.17
2019-05-17T11:22:12.183Z,20.33
2019-05-17T11:24:41.923Z,17.83
2019-05-17T11:27:11.652Z,19.03
2019-05-17T11:29:41.567Z,17.13
2019-05-17T11:32:11.308Z,16.17
2019-05-17T11:34:40.972Z,17.33
2019-05-17T11:37:11.604Z,17.27
2019-05-17T11:39:42.301Z,17.20
2019-05-17T11:42:11.983Z,16.47
2019-05-17T11:44:41.711Z,16.70
2019-05-17T11:47:11.365Z,15.40
2019-05-17T11:49:41.346Z,15.13
2019-05-17T11:52:11.435Z,16.30
2019-05-17T11:54:41.143Z,15.97
2019-05-17T11:57:12.441Z,15.10
2019-05-17T11:59:42.408Z,15.73
2019-05-17T12:02:12.208Z,15.70
2019-05-17T12:04:42.162Z,14.93
2019-05-17T12:07:12.140Z,14.63
2019-05-17T12:09:41.833Z,14.13
2019-05-17T12:12:11.498Z,12.87
2019-05-17T12:14:44.221Z,12.50
2019-05-17T12:17:13.937Z,12.27
2019-05-17T12:19:43.979Z,12.90
2019-05-17T12:22:14.006Z,13.57
2019-05-17T12:24:45.170Z,10.43
2019-05-17T12:27:15.267Z,13.20
2019-05-17T12:29:45.037Z,14.53
2019-05-17T12:32:17.074Z,17.30
2019-05-17T12:34:46.210Z,17.40
2019-05-17T12:37:16.848Z,17.43
2019-05-17T12:39:46.518Z,15.70
2019-05-17T12:42:16.176Z,14.30
2019-05-17T12:44:46.184Z,15.88
2019-05-17T12:47:16.302Z,15.58
2019-05-17T12:49:46.074Z,16.27
2019-05-17T12:52:15.872Z,15.47
2019-05-17T12:54:45.613Z,15.53
2019-05-17T12:57:16.628Z,14.20
2019-05-17T12:59:46.710Z,15.28
2019-05-17T13:02:16.782Z,15.68
2019-05-17T13:04:46.832Z,16.27
2019-05-17T13:07:16.814Z,16.10
2019-05-17T13:09:46.812Z,15.78
2019-05-17T13:12:16.831Z,19.15
2019-05-17T13:14:46.927Z,17.73
2019-05-17T13:17:16.598Z,22.83
2019-05-17T13:19:46.632Z,22.65
2019-05-17T13:22:17.930Z,18.98
2019-05-17T13:24:48.027Z,17.37
2019-05-17T13:27:18.570Z,16.60
2019-05-17T13:29:48.516Z,15.45
2019-05-17T13:32:18.624Z,17.00
2019-05-17T13:34:48.650Z,16.87
2019-05-17T13:37:18.616Z,15.68
2019-05-17T13:39:48.573Z,17.12
2019-05-17T13:42:18.626Z,15.90
2019-05-17T13:44:48.574Z,16.25
2019-05-17T13:47:18.687Z,16.42
2019-05-17T13:49:49.697Z,15.32
2019-05-17T13:52:19.920Z,16.02
2019-05-17T13:54:49.930Z,15.78
2019-05-17T13:57:19.884Z,15.80
2019-05-17T13:59:50.846Z,16.27
2019-05-17T14:02:20.765Z,16.95
2019-05-17T14:04:50.738Z,18.35
2019-05-17T14:07:20.757Z,16.23
2019-05-17T14:09:50.823Z,13.88
2019-05-17T14:12:20.533Z,13.77
2019-05-17T14:14:50.930Z,13.55
2019-05-17T14:17:20.998Z,14.35
2019-05-17T14:19:51.013Z,14.33
2019-05-17T14:22:21.114Z,13.85
2019-05-17T14:24:51.357Z,12.80
2019-05-17T14:27:21.293Z,13.28
2019-05-17T14:29:51.079Z,10.80
2019-05-17T14:32:20.848Z,11.05
2019-05-17T14:34:50.796Z,11.33
2019-05-17T14:37:20.542Z,11.17
2019-05-17T14:39:50.906Z,9.93
2019-05-17T14:42:20.465Z,8.20
2019-05-17T14:44:50.223Z,6.93
2019-05-17T14:47:19.880Z,6.57
2019-05-17T14:49:51.173Z,6.03
2019-05-17T14:52:22.622Z,6.53
2019-05-17T14:54:53.976Z,6.63
2019-05-17T14:57:23.809Z,7.67
2019-05-17T14:59:53.494Z,6.20
2019-05-17T15:02:23.250Z,4.70
2019-05-17T15:04:52.888Z,4.80
2019-05-17T15:07:22.641Z,4.53
2019-05-17T15:09:52.531Z,4.30
2019-05-17T15:12:28.359Z,4.90
2019-05-17T15:14:53.651Z,3.20
2019-05-17T15:17:23.299Z,3.73
2019-05-17T15:19:53.227Z,3.40
2019-05-17T15:22:23.009Z,5.27
2019-05-17T15:24:53.028Z,3.93
2019-05-17T15:27:22.680Z,2.97
2019-05-17T15:29:53.442Z,2.87
2019-05-17T15:32:23.304Z,3.80
2019-05-17T15:34:53.016Z,3.00
2019-05-17T15:37:22.670Z,3.43
2019-05-17T15:39:53.172Z,3.80
2019-05-17T15:42:22.956Z,4.60
2019-05-17T15:44:52.660Z,4.50
2019-05-17T15:47:22.417Z,4.77
2019-05-17T15:49:52.124Z,7.17
2019-05-17T15:52:21.866Z,5.27
2019-05-17T15:54:51.571Z,6.33
2019-05-17T15:57:20.988Z,6.67
2019-05-17T15:59:50.448Z,5.73
2019-05-17T16:02:20.577Z,6.67
2019-05-17T16:04:50.729Z,6.23
2019-05-17T16:07:20.523Z,5.63
2019-05-17T16:09:50.257Z,5.80
2019-05-17T16:12:20.135Z,5.50
2019-05-17T16:14:49.877Z,6.50
2019-05-17T16:17:19.515Z,6.53
2019-05-17T16:19:49.599Z,7.60
2019-05-17T16:22:19.708Z,6.30
2019-05-17T16:24:49.472Z,6.33
2019-05-17T16:27:19.558Z,5.92
2019-05-17T16:29:49.549Z,6.33
2019-05-17T16:32:19.628Z,6.35
2019-05-17T16:34:49.945Z,6.78
2019-05-17T16:37:19.967Z,6.35
2019-05-17T16:39:49.993Z,7.47
2019-05-17T16:42:20.852Z,7.30
2019-05-17T16:44:50.868Z,7.55
2019-05-17T16:47:20.888Z,7.97
2019-05-17T16:49:50.903Z,7.28
2019-05-17T16:52:20.965Z,7.12
2019-05-17T16:54:51.144Z,7.67
2019-05-17T16:57:21.364Z,7.97
2019-05-17T16:59:51.319Z,7.60
2019-05-17T17:02:21.356Z,7.17
2019-05-17T17:04:51.315Z,7.10
2019-05-17T17:07:21.445Z,6.83
2019-05-17T17:09:51.560Z,6.53
2019-05-17T17:12:21.621Z,6.08
2019-05-17T17:14:51.777Z,6.72
2019-05-17T17:17:21.846Z,7.12
2019-05-17T17:19:51.931Z,7.55
2019-05-17T17:22:21.896Z,7.35
2019-05-17T17:24:51.897Z,7.35
2019-05-17T17:27:22.077Z,7.95
2019-05-17T17:29:52.049Z,7.28
2019-05-17T17:32:22.063Z,7.60
2019-05-17T17:34:53.202Z,7.40
2019-05-17T17:37:23.449Z,7.90
2019-05-17T17:39:53.715Z,7.65
2019-05-17T17:42:24.848Z,8.43
2019-05-17T17:44:55.178Z,6.92
2019-05-17T17:47:25.200Z,8.48
2019-05-17T17:49:55.148Z,8.40
2019-05-17T17:52:25.113Z,6.90
2019-05-17T17:54:55.292Z,8.05
2019-05-17T17:57:25.454Z,7.30
2019-05-17T17:59:55.844Z,8.05
2019-05-17T18:02:26.181Z,7.95
2019-05-17T18:04:56.295Z,8.15
2019-05-17T18:07:26.472Z,8.28
2019-05-17T18:09:56.788Z,8.38
2019-05-17T18:12:27.274Z,7.75
2019-05-17T18:15:02.393Z,7.87
2019-05-17T18:17:38.778Z,8.05
2019-05-17T18:20:02.778Z,8.13
2019-05-17T18:22:32.820Z,8.38
2019-05-17T18:25:03.090Z,8.65
2019-05-17T18:27:33.193Z,9.15
2019-05-17T18:30:04.493Z,9.98
2019-05-17T18:32:34.511Z,9.05
2019-05-17T18:35:06.626Z,10.65
2019-05-17T18:37:37.603Z,10.30
2019-05-17T18:40:07.821Z,10.10
2019-05-17T18:42:38.676Z,10.00
2019-05-17T18:45:09.049Z,10.20
2019-05-17T18:47:39.034Z,10.82
2019-05-17T18:50:09.919Z,10.53
2019-05-17T18:52:39.892Z,10.28
2019-05-17T18:55:10.487Z,10.85
2019-05-17T18:57:41.533Z,11.50
2019-05-17T19:00:12.244Z,12.00
2019-05-17T19:02:42.298Z,11.45
2019-05-17T19:05:12.950Z,11.65
2019-05-17T19:07:42.981Z,11.33
2019-05-17T19:10:13.486Z,10.53
2019-05-17T19:12:43.693Z,11.35
2019-05-17T19:15:15.758Z,11.45
2019-05-17T19:17:45.768Z,12.75
2019-05-17T19:20:17.595Z,14.38
2019-05-17T19:22:47.610Z,14.38
2019-05-17T19:25:17.883Z,13.00
2019-05-17T19:27:48.213Z,12.50
2019-05-17T19:30:18.760Z,12.03
2019-05-17T19:32:48.810Z,13.25
2019-05-17T19:35:18.946Z,12.78
2019-05-17T19:37:48.912Z,12.90
2019-05-17T19:40:19.029Z,13.28
2019-05-17T19:42:50.871Z,15.98
2019-05-17T19:45:21.146Z,15.78
2019-05-17T19:47:50.764Z,14.70
2019-05-17T19:50:20.909Z,16.12
2019-05-17T19:52:50.865Z,15.70
2019-05-17T19:55:20.931Z,24.12
2019-05-17T19:57:50.963Z,14.58
2019-05-17T20:00:21.320Z,14.58
2019-05-17T20:02:51.612Z,14.93
2019-05-17T20:05:21.235Z,14.73
2019-05-17T20:07:51.302Z,15.28
2019-05-17T20:10:21.739Z,13.72
2019-05-17T20:12:51.889Z,15.53
2019-05-17T20:15:33.615Z,14.70
2019-05-17T20:17:53.257Z,14.38
2019-05-17T20:20:23.328Z,14.38
2019-05-17T20:22:53.465Z,14.50
2019-05-17T20:25:23.565Z,14.95
2019-05-17T20:27:53.663Z,15.08
2019-05-17T20:30:23.702Z,19.05
2019-05-17T20:32:53.754Z,24.18
2019-05-17T20:35:23.750Z,36.25
2019-05-17T20:37:53.761Z,37.95
2019-05-17T20:40:23.848Z,39.10
2019-05-17T20:42:54.680Z,30.25
2019-05-17T20:45:32.550Z,32.35
2019-05-17T20:47:56.424Z,32.08
2019-05-17T20:50:26.447Z,27.95
2019-05-17T20:52:57.494Z,26.68
2019-05-17T20:55:27.536Z,23.75
2019-05-17T20:57:57.536Z,21.57
2019-05-17T21:00:27.639Z,19.17
2019-05-17T21:02:57.592Z,20.40
2019-05-17T21:05:27.593Z,21.95
2019-05-17T21:07:57.682Z,23.02
2019-05-17T21:10:27.721Z,21.95
2019-05-17T21:12:57.737Z,21.37
2019-05-17T21:15:27.851Z,20.75
2019-05-17T21:17:57.878Z,20.40
2019-05-17T21:20:28.012Z,22.42
2019-05-17T21:22:57.986Z,22.58
2019-05-17T21:25:27.920Z,21.90
2019-05-17T21:27:57.987Z,22.02
2019-05-17T21:30:28.163Z,22.48
2019-05-17T21:32:58.193Z,23.05
2019-05-17T21:35:28.146Z,22.17
2019-05-17T21:37:58.200Z,21.10
2019-05-17T21:40:28.138Z,21.10
2019-05-17T21:42:58.974Z,20.10
2019-05-17T21:45:29.012Z,20.95
2019-05-17T21:47:59.033Z,21.33
2019-05-17T21:50:29.060Z,21.40
2019-05-17T21:52:59.009Z,21.97
2019-05-17T21:55:29.111Z,21.12
2019-05-17T21:57:59.067Z,20.35
2019-05-17T22:00:47.402Z,21.55
2019-05-17T22:03:19.205Z,21.73
2019-05-17T22:05:49.183Z,21.50
2019-05-17T22:08:19.535Z,21.48
2019-05-17T22:10:50.188Z,21.68
2019-05-17T22:13:20.252Z,21.90
2019-05-17T22:15:50.275Z,22.85
2019-05-17T22:18:20.281Z,23.20
2019-05-17T22:20:50.339Z,22.90
2019-05-17T22:23:20.331Z,23.05
2019-05-17T22:25:50.373Z,23.20
2019-05-17T22:28:20.431Z,23.87
2019-05-17T22:30:50.411Z,23.77
2019-05-17T22:33:20.395Z,24.45
2019-05-17T22:35:50.432Z,23.62
2019-05-17T22:38:20.563Z,22.58
2019-05-17T22:40:51.492Z,23.35
2019-05-17T22:43:26.023Z,22.37
2019-05-17T22:45:56.078Z,23.62
2019-05-17T22:48:26.071Z,23.75
2019-05-17T22:50:55.992Z,22.67
2019-05-17T22:53:25.853Z,23.15
2019-05-17T22:55:55.807Z,23.83
2019-05-17T22:58:25.953Z,22.98
2019-05-17T23:00:55.932Z,24.12
2019-05-17T23:03:25.938Z,24.27
2019-05-17T23:05:55.951Z,23.85
2019-05-17T23:08:25.928Z,25.12
2019-05-17T23:10:55.966Z,24.00
2019-05-17T23:13:25.903Z,25.85
2019-05-17T23:16:02.496Z,25.95
2019-05-17T23:18:33.608Z,25.55
2019-05-17T23:21:04.014Z,26.05
2019-05-17T23:23:34.038Z,25.32
2019-05-17T23:26:04.115Z,25.97
2019-05-17T23:28:34.084Z,25.62
2019-05-17T23:31:04.037Z,24.55
2019-05-17T23:33:34.122Z,23.30
2019-05-17T23:36:05.159Z,24.43
2019-05-17T23:38:35.250Z,23.38
2019-05-17T23:41:05.228Z,24.20
2019-05-17T23:43:36.059Z,24.52
2019-05-17T23:46:06.071Z,24.95
2019-05-17T23:48:36.146Z,24.98
2019-05-17T23:51:06.200Z,24.98
2019-05-17T23:53:36.362Z,22.87
2019-05-17T23:56:06.487Z,23.47
2019-05-17T23:58:36.492Z,22.90
